sensor_id;sensor_type;location;lat;lon;timestamp;P1;durP1;ratioP1;P2;durP2;ratioP2
21721;SDS011;11023;48.274;7.794;2023-12-20T00:01:01;4.25;;;1.50;;
21721;SDS011;11023;48.274;7.794;2023-12-20T00:03:27;1.30;;;1.05;;
21721;SDS011;11023;48.274;7.794;2023-12-20T00:05:53;3.10;;;1.40;;
21721;SDS011;11023;48.274;7.794;2023-12-20T00:08:18;5.38;;;1.42;;
21721;SDS011;11023;48.274;7.794;2023-12-20T00:10:44;1.95;;;1.15;;
21721;SDS011;11023;48.274;7.794;2023-12-20T00:13:10;1.75;;;1.20;;
21721;SDS011;11023;48.274;7.794;2023-12-20T00:15:36;1.60;;;1.08;;
21721;SDS011;11023;48.274;7.794;2023-12-20T00:18:01;1.75;;;0.82;;
21721;SDS011;11023;48.274;7.794;2023-12-20T00:20:28;2.05;;;1.52;;
21721;SDS011;11023;48.274;7.794;2023-12-20T00:22:55;4.28;;;1.50;;
21721;SDS011;11023;48.274;7.794;2023-12-20T00:25:24;2.38;;;1.10;;
21721;SDS011;11023;48.274;7.794;2023-12-20T00:27:50;2.00;;;1.30;;
21721;SDS011;11023;48.274;7.794;2023-12-20T00:30:16;4.72;;;1.15;;
21721;SDS011;11023;48.274;7.794;2023-12-20T00:32:42;2.28;;;1.27;;
21721;SDS011;11023;48.274;7.794;2023-12-20T00:35:14;1.38;;;1.27;;
21721;SDS011;11023;48.274;7.794;2023-12-20T00:37:40;3.40;;;1.50;;
21721;SDS011;11023;48.274;7.794;2023-12-20T00:40:06;4.18;;;1.50;;
21721;SDS011;11023;48.274;7.794;2023-12-20T00:42:32;1.98;;;1.35;;
21721;SDS011;11023;48.274;7.794;2023-12-20T00:44:58;2.67;;;1.70;;
21721;SDS011;11023;48.274;7.794;2023-12-20T00:47:24;2.15;;;1.33;;
21721;SDS011;11023;48.274;7.794;2023-12-20T00:49:50;3.03;;;1.40;;
21721;SDS011;11023;48.274;7.794;2023-12-20T00:52:16;4.30;;;1.42;;
21721;SDS011;11023;48.274;7.794;2023-12-20T00:54:43;1.85;;;1.27;;
21721;SDS011;11023;48.274;7.794;2023-12-20T00:57:09;1.52;;;1.15;;
21721;SDS011;11023;48.274;7.794;2023-12-20T00:59:35;2.00;;;1.17;;
21721;SDS011;11023;48.274;7.794;2023-12-20T01:02:03;1.67;;;1.10;;
21721;SDS011;11023;48.274;7.794;2023-12-20T01:04:29;1.08;;;0.85;;
21721;SDS011;11023;48.274;7.794;2023-12-20T01:06:54;2.58;;;1.40;;
21721;SDS011;11023;48.274;7.794;2023-12-20T01:09:20;3.25;;;1.40;;
21721;SDS011;11023;48.274;7.794;2023-12-20T01:11:48;2.72;;;1.05;;
21721;SDS011;11023;48.274;7.794;2023-12-20T01:14:14;1.60;;;0.80;;
21721;SDS011;11023;48.274;7.794;2023-12-20T01:16:40;2.60;;;1.30;;
21721;SDS011;11023;48.274;7.794;2023-12-20T01:19:06;2.65;;;1.50;;
21721;SDS011;11023;48.274;7.794;2023-12-20T01:21:32;2.13;;;1.10;;
21721;SDS011;11023;48.274;7.794;2023-12-20T01:23:57;2.22;;;1.17;;
21721;SDS011;11023;48.274;7.794;2023-12-20T01:26:23;1.58;;;1.17;;
21721;SDS011;11023;48.274;7.794;2023-12-20T01:28:49;1.23;;;0.80;;
21721;SDS011;11023;48.274;7.794;2023-12-20T01:31:14;1.42;;;0.95;;
21721;SDS011;11023;48.274;7.794;2023-12-20T01:33:40;1.83;;;0.77;;
21721;SDS011;11023;48.274;7.794;2023-12-20T01:36:06;3.22;;;1.17;;
21721;SDS011;11023;48.274;7.794;2023-12-20T01:38:31;2.25;;;1.10;;
21721;SDS011;11023;48.274;7.794;2023-12-20T01:40:57;0.80;;;0.68;;
21721;SDS011;11023;48.274;7.794;2023-12-20T01:43:24;2.50;;;0.70;;
21721;SDS011;11023;48.274;7.794;2023-12-20T01:45:49;1.23;;;0.82;;
21721;SDS011;11023;48.274;7.794;2023-12-20T01:48:16;1.55;;;1.10;;
21721;SDS011;11023;48.274;7.794;2023-12-20T01:50:42;1.63;;;0.90;;
21721;SDS011;11023;48.274;7.794;2023-12-20T01:53:09;3.00;;;1.30;;
21721;SDS011;11023;48.274;7.794;2023-12-20T01:55:38;1.63;;;1.08;;
21721;SDS011;11023;48.274;7.794;2023-12-20T01:58:05;2.10;;;1.23;;
21721;SDS011;11023;48.274;7.794;2023-12-20T02:00:33;2.25;;;1.00;;
21721;SDS011;11023;48.274;7.794;2023-12-20T02:03:03;1.90;;;1.38;;
21721;SDS011;11023;48.274;7.794;2023-12-20T02:05:30;1.85;;;1.10;;
21721;SDS011;11023;48.274;7.794;2023-12-20T02:07:56;1.73;;;1.05;;
21721;SDS011;11023;48.274;7.794;2023-12-20T02:10:22;1.48;;;0.88;;
21721;SDS011;11023;48.274;7.794;2023-12-20T02:12:48;2.00;;;1.02;;
21721;SDS011;11023;48.274;7.794;2023-12-20T02:15:13;1.95;;;1.20;;
21721;SDS011;11023;48.274;7.794;2023-12-20T02:17:40;1.98;;;1.05;;
21721;SDS011;11023;48.274;7.794;2023-12-20T02:20:06;3.42;;;0.93;;
21721;SDS011;11023;48.274;7.794;2023-12-20T02:22:31;0.73;;;0.63;;
21721;SDS011;11023;48.274;7.794;2023-12-20T02:24:57;2.63;;;1.10;;
21721;SDS011;11023;48.274;7.794;2023-12-20T02:27:23;1.15;;;0.88;;
21721;SDS011;11023;48.274;7.794;2023-12-20T02:29:48;1.08;;;0.98;;
21721;SDS011;11023;48.274;7.794;2023-12-20T02:32:15;2.03;;;1.00;;
21721;SDS011;11023;48.274;7.794;2023-12-20T02:34:42;1.10;;;1.00;;
21721;SDS011;11023;48.274;7.794;2023-12-20T02:37:08;1.85;;;1.10;;
21721;SDS011;11023;48.274;7.794;2023-12-20T02:39:34;1.30;;;0.90;;
21721;SDS011;11023;48.274;7.794;2023-12-20T02:41:59;2.72;;;1.13;;
21721;SDS011;11023;48.274;7.794;2023-12-20T02:44:25;1.95;;;1.05;;
21721;SDS011;11023;48.274;7.794;2023-12-20T02:46:51;1.80;;;1.02;;
21721;SDS011;11023;48.274;7.794;2023-12-20T02:49:16;1.17;;;0.93;;
21721;SDS011;11023;48.274;7.794;2023-12-20T02:51:43;1.38;;;0.80;;
21721;SDS011;11023;48.274;7.794;2023-12-20T02:54:09;1.13;;;0.60;;
21721;SDS011;11023;48.274;7.794;2023-12-20T02:56:34;0.52;;;0.47;;
21721;SDS011;11023;48.274;7.794;2023-12-20T02:59:00;1.92;;;0.80;;
21721;SDS011;11023;48.274;7.794;2023-12-20T03:01:27;1.60;;;0.82;;
21721;SDS011;11023;48.274;7.794;2023-12-20T03:03:54;1.67;;;0.68;;
21721;SDS011;11023;48.274;7.794;2023-12-20T03:06:19;1.77;;;0.90;;
21721;SDS011;11023;48.274;7.794;2023-12-20T03:08:45;1.23;;;1.00;;
21721;SDS011;11023;48.274;7.794;2023-12-20T03:11:11;0.85;;;0.70;;
21721;SDS011;11023;48.274;7.794;2023-12-20T03:13:37;1.77;;;0.77;;
21721;SDS011;11023;48.274;7.794;2023-12-20T03:16:12;0.95;;;0.70;;
21721;SDS011;11023;48.274;7.794;2023-12-20T03:18:38;1.85;;;0.82;;
21721;SDS011;11023;48.274;7.794;2023-12-20T03:21:04;1.27;;;0.63;;
21721;SDS011;11023;48.274;7.794;2023-12-20T03:23:30;1.33;;;0.90;;
21721;SDS011;11023;48.274;7.794;2023-12-20T03:25:57;1.63;;;0.80;;
21721;SDS011;11023;48.274;7.794;2023-12-20T03:28:23;2.33;;;0.80;;
21721;SDS011;11023;48.274;7.794;2023-12-20T03:30:49;1.75;;;1.00;;
21721;SDS011;11023;48.274;7.794;2023-12-20T03:33:15;1.92;;;0.70;;
21721;SDS011;11023;48.274;7.794;2023-12-20T03:35:41;2.22;;;1.17;;
21721;SDS011;11023;48.274;7.794;2023-12-20T03:38:12;1.20;;;0.63;;
21721;SDS011;11023;48.274;7.794;2023-12-20T03:40:38;1.90;;;0.80;;
21721;SDS011;11023;48.274;7.794;2023-12-20T03:43:04;1.05;;;0.82;;
21721;SDS011;11023;48.274;7.794;2023-12-20T03:45:29;1.08;;;0.82;;
21721;SDS011;11023;48.274;7.794;2023-12-20T03:47:55;0.98;;;0.88;;
21721;SDS011;11023;48.274;7.794;2023-12-20T03:50:25;0.93;;;0.70;;
21721;SDS011;11023;48.274;7.794;2023-12-20T03:52:51;0.93;;;0.60;;
21721;SDS011;11023;48.274;7.794;2023-12-20T03:55:17;1.98;;;0.47;;
21721;SDS011;11023;48.274;7.794;2023-12-20T03:57:43;0.90;;;0.75;;
21721;SDS011;11023;48.274;7.794;2023-12-20T04:00:09;0.77;;;0.63;;
21721;SDS011;11023;48.274;7.794;2023-12-20T04:02:36;0.82;;;0.50;;
21721;SDS011;11023;48.274;7.794;2023-12-20T04:05:05;0.75;;;0.60;;
21721;SDS011;11023;48.274;7.794;2023-12-20T04:07:32;1.25;;;0.60;;
21721;SDS011;11023;48.274;7.794;2023-12-20T04:09:57;0.90;;;0.73;;
21721;SDS011;11023;48.274;7.794;2023-12-20T04:12:23;1.00;;;0.70;;
21721;SDS011;11023;48.274;7.794;2023-12-20T04:14:49;1.10;;;0.73;;
21721;SDS011;11023;48.274;7.794;2023-12-20T04:17:17;0.73;;;0.57;;
21721;SDS011;11023;48.274;7.794;2023-12-20T04:19:44;1.20;;;0.80;;
21721;SDS011;11023;48.274;7.794;2023-12-20T04:22:09;1.25;;;0.65;;
21721;SDS011;11023;48.274;7.794;2023-12-20T04:24:35;0.85;;;0.60;;
21721;SDS011;11023;48.274;7.794;2023-12-20T04:27:01;1.15;;;0.77;;
21721;SDS011;11023;48.274;7.794;2023-12-20T04:29:27;1.17;;;0.75;;
21721;SDS011;11023;48.274;7.794;2023-12-20T04:31:52;1.00;;;0.77;;
21721;SDS011;11023;48.274;7.794;2023-12-20T04:34:18;1.05;;;0.55;;
21721;SDS011;11023;48.274;7.794;2023-12-20T04:36:44;1.63;;;0.85;;
21721;SDS011;11023;48.274;7.794;2023-12-20T04:39:11;2.35;;;0.80;;
21721;SDS011;11023;48.274;7.794;2023-12-20T04:41:38;1.95;;;0.47;;
21721;SDS011;11023;48.274;7.794;2023-12-20T04:44:03;0.70;;;0.45;;
21721;SDS011;11023;48.274;7.794;2023-12-20T04:46:29;0.88;;;0.50;;
21721;SDS011;11023;48.274;7.794;2023-12-20T04:48:55;0.77;;;0.60;;
21721;SDS011;11023;48.274;7.794;2023-12-20T04:51:20;1.08;;;0.70;;
21721;SDS011;11023;48.274;7.794;2023-12-20T04:53:46;0.95;;;0.60;;
21721;SDS011;11023;48.274;7.794;2023-12-20T04:56:12;1.15;;;0.60;;
21721;SDS011;11023;48.274;7.794;2023-12-20T04:58:38;4.68;;;0.75;;
21721;SDS011;11023;48.274;7.794;2023-12-20T05:01:03;0.73;;;0.55;;
21721;SDS011;11023;48.274;7.794;2023-12-20T05:03:31;1.30;;;0.95;;
21721;SDS011;11023;48.274;7.794;2023-12-20T05:05:56;0.88;;;0.85;;
21721;SDS011;11023;48.274;7.794;2023-12-20T05:08:23;1.58;;;1.08;;
21721;SDS011;11023;48.274;7.794;2023-12-20T05:10:48;1.13;;;1.00;;
21721;SDS011;11023;48.274;7.794;2023-12-20T05:13:14;1.23;;;1.00;;
21721;SDS011;11023;48.274;7.794;2023-12-20T05:15:40;1.60;;;1.15;;
21721;SDS011;11023;48.274;7.794;2023-12-20T05:18:06;0.90;;;0.77;;
21721;SDS011;11023;48.274;7.794;2023-12-20T05:20:31;1.63;;;1.00;;
21721;SDS011;11023;48.274;7.794;2023-12-20T05:22:57;1.58;;;1.08;;
21721;SDS011;11023;48.274;7.794;2023-12-20T05:25:23;3.30;;;0.88;;
21721;SDS011;11023;48.274;7.794;2023-12-20T05:27:48;1.13;;;0.70;;
21721;SDS011;11023;48.274;7.794;2023-12-20T05:30:14;1.23;;;0.80;;
21721;SDS011;11023;48.274;7.794;2023-12-20T05:32:40;1.88;;;0.60;;
21721;SDS011;11023;48.274;7.794;2023-12-20T05:35:05;2.70;;;0.60;;
21721;SDS011;11023;48.274;7.794;2023-12-20T05:37:32;0.65;;;0.65;;
21721;SDS011;11023;48.274;7.794;2023-12-20T05:39:57;0.68;;;0.60;;
21721;SDS011;11023;48.274;7.794;2023-12-20T05:42:23;0.98;;;0.52;;
21721;SDS011;11023;48.274;7.794;2023-12-20T05:44:49;0.40;;;0.40;;
21721;SDS011;11023;48.274;7.794;2023-12-20T05:47:14;0.68;;;0.45;;
21721;SDS011;11023;48.274;7.794;2023-12-20T05:49:40;0.38;;;0.35;;
21721;SDS011;11023;48.274;7.794;2023-12-20T05:52:07;0.75;;;0.40;;
21721;SDS011;11023;48.274;7.794;2023-12-20T05:54:32;0.60;;;0.57;;
21721;SDS011;11023;48.274;7.794;2023-12-20T05:56:59;0.68;;;0.68;;
21721;SDS011;11023;48.274;7.794;2023-12-20T05:59:25;0.57;;;0.32;;
21721;SDS011;11023;48.274;7.794;2023-12-20T06:01:51;1.02;;;0.77;;
21721;SDS011;11023;48.274;7.794;2023-12-20T06:04:17;1.02;;;0.82;;
21721;SDS011;11023;48.274;7.794;2023-12-20T06:06:43;1.00;;;0.75;;
21721;SDS011;11023;48.274;7.794;2023-12-20T06:09:09;1.88;;;0.80;;
21721;SDS011;11023;48.274;7.794;2023-12-20T06:11:35;1.60;;;0.80;;
21721;SDS011;11023;48.274;7.794;2023-12-20T06:14:00;2.13;;;0.85;;
21721;SDS011;11023;48.274;7.794;2023-12-20T06:16:26;1.80;;;0.90;;
21721;SDS011;11023;48.274;7.794;2023-12-20T06:18:52;0.98;;;0.85;;
21721;SDS011;11023;48.274;7.794;2023-12-20T06:21:17;0.82;;;0.35;;
21721;SDS011;11023;48.274;7.794;2023-12-20T06:23:43;0.75;;;0.60;;
21721;SDS011;11023;48.274;7.794;2023-12-20T06:26:09;0.50;;;0.50;;
21721;SDS011;11023;48.274;7.794;2023-12-20T06:28:34;1.38;;;0.40;;
21721;SDS011;11023;48.274;7.794;2023-12-20T06:31:00;0.35;;;0.32;;
21721;SDS011;11023;48.274;7.794;2023-12-20T06:33:26;0.60;;;0.30;;
21721;SDS011;11023;48.274;7.794;2023-12-20T06:35:52;0.40;;;0.40;;
21721;SDS011;11023;48.274;7.794;2023-12-20T06:38:18;0.28;;;0.28;;
21721;SDS011;11023;48.274;7.794;2023-12-20T06:40:44;0.50;;;0.20;;
21721;SDS011;11023;48.274;7.794;2023-12-20T06:43:10;2.38;;;0.40;;
21721;SDS011;11023;48.274;7.794;2023-12-20T06:45:36;0.68;;;0.38;;
21721;SDS011;11023;48.274;7.794;2023-12-20T06:48:02;0.60;;;0.30;;
21721;SDS011;11023;48.274;7.794;2023-12-20T06:50:28;0.77;;;0.40;;
21721;SDS011;11023;48.274;7.794;2023-12-20T06:52:54;0.85;;;0.50;;
21721;SDS011;11023;48.274;7.794;2023-12-20T06:55:19;1.65;;;0.85;;
21721;SDS011;11023;48.274;7.794;2023-12-20T06:57:45;0.90;;;0.60;;
21721;SDS011;11023;48.274;7.794;2023-12-20T07:00:11;0.65;;;0.50;;
21721;SDS011;11023;48.274;7.794;2023-12-20T07:02:37;1.33;;;0.90;;
21721;SDS011;11023;48.274;7.794;2023-12-20T07:05:03;0.63;;;0.50;;
21721;SDS011;11023;48.274;7.794;2023-12-20T07:07:29;1.05;;;0.50;;
21721;SDS011;11023;48.274;7.794;2023-12-20T07:09:55;0.40;;;0.30;;
21721;SDS011;11023;48.274;7.794;2023-12-20T07:12:21;0.20;;;0.20;;
21721;SDS011;11023;48.274;7.794;2023-12-20T07:14:46;1.00;;;0.65;;
21721;SDS011;11023;48.274;7.794;2023-12-20T07:17:12;1.23;;;0.45;;
21721;SDS011;11023;48.274;7.794;2023-12-20T07:19:39;1.27;;;0.32;;
21721;SDS011;11023;48.274;7.794;2023-12-20T07:22:06;4.88;;;0.50;;
21721;SDS011;11023;48.274;7.794;2023-12-20T07:24:32;0.50;;;0.30;;
21721;SDS011;11023;48.274;7.794;2023-12-20T07:26:59;0.70;;;0.40;;
21721;SDS011;11023;48.274;7.794;2023-12-20T07:29:25;0.52;;;0.30;;
21721;SDS011;11023;48.274;7.794;2023-12-20T07:31:51;0.77;;;0.40;;
21721;SDS011;11023;48.274;7.794;2023-12-20T07:34:18;0.88;;;0.57;;
21721;SDS011;11023;48.274;7.794;2023-12-20T07:39:23;1.85;;;0.95;;
21721;SDS011;11023;48.274;7.794;2023-12-20T07:41:49;1.25;;;0.77;;
21721;SDS011;11023;48.274;7.794;2023-12-20T07:44:14;1.00;;;0.93;;
21721;SDS011;11023;48.274;7.794;2023-12-20T07:46:40;2.17;;;0.73;;
21721;SDS011;11023;48.274;7.794;2023-12-20T07:49:06;0.55;;;0.55;;
21721;SDS011;11023;48.274;7.794;2023-12-20T07:51:33;0.63;;;0.63;;
21721;SDS011;11023;48.274;7.794;2023-12-20T07:53:59;3.42;;;0.50;;
21721;SDS011;11023;48.274;7.794;2023-12-20T07:56:24;1.45;;;0.70;;
21721;SDS011;11023;48.274;7.794;2023-12-20T07:58:50;0.98;;;0.52;;
21721;SDS011;11023;48.274;7.794;2023-12-20T08:01:16;1.42;;;0.68;;
21721;SDS011;11023;48.274;7.794;2023-12-20T08:03:43;1.20;;;0.63;;
21721;SDS011;11023;48.274;7.794;2023-12-20T08:06:09;0.95;;;0.70;;
21721;SDS011;11023;48.274;7.794;2023-12-20T08:08:35;1.17;;;0.70;;
21721;SDS011;11023;48.274;7.794;2023-12-20T08:11:00;0.90;;;0.60;;
21721;SDS011;11023;48.274;7.794;2023-12-20T08:13:27;1.05;;;0.68;;
21721;SDS011;11023;48.274;7.794;2023-12-20T08:15:53;7.05;;;1.20;;
21721;SDS011;11023;48.274;7.794;2023-12-20T08:18:20;1.15;;;0.85;;
21721;SDS011;11023;48.274;7.794;2023-12-20T08:20:47;0.68;;;0.68;;
21721;SDS011;11023;48.274;7.794;2023-12-20T08:23:13;0.82;;;0.60;;
21721;SDS011;11023;48.274;7.794;2023-12-20T08:25:39;2.40;;;1.05;;
21721;SDS011;11023;48.274;7.794;2023-12-20T08:28:05;1.60;;;1.00;;
21721;SDS011;11023;48.274;7.794;2023-12-20T08:30:30;3.80;;;0.80;;
21721;SDS011;11023;48.274;7.794;2023-12-20T08:32:59;1.50;;;0.60;;
21721;SDS011;11023;48.274;7.794;2023-12-20T08:35:25;2.03;;;0.68;;
21721;SDS011;11023;48.274;7.794;2023-12-20T08:37:51;1.77;;;0.95;;
21721;SDS011;11023;48.274;7.794;2023-12-20T08:40:16;1.42;;;1.08;;
21721;SDS011;11023;48.274;7.794;2023-12-20T08:42:42;2.13;;;0.60;;
21721;SDS011;11023;48.274;7.794;2023-12-20T08:45:08;1.23;;;0.70;;
21721;SDS011;11023;48.274;7.794;2023-12-20T08:47:34;1.13;;;0.90;;
21721;SDS011;11023;48.274;7.794;2023-12-20T08:49:59;2.50;;;1.25;;
21721;SDS011;11023;48.274;7.794;2023-12-20T08:52:26;2.15;;;1.30;;
21721;SDS011;11023;48.274;7.794;2023-12-20T08:54:52;3.17;;;1.48;;
21721;SDS011;11023;48.274;7.794;2023-12-20T08:57:21;1.75;;;0.80;;
21721;SDS011;11023;48.274;7.794;2023-12-20T08:59:50;1.63;;;1.13;;
21721;SDS011;11023;48.274;7.794;2023-12-20T09:02:16;0.77;;;0.70;;
21721;SDS011;11023;48.274;7.794;2023-12-20T09:04:43;6.18;;;1.02;;
21721;SDS011;11023;48.274;7.794;2023-12-20T09:07:21;2.17;;;1.15;;
21721;SDS011;11023;48.274;7.794;2023-12-20T09:09:48;2.25;;;1.10;;
21721;SDS011;11023;48.274;7.794;2023-12-20T09:12:14;3.65;;;1.00;;
21721;SDS011;11023;48.274;7.794;2023-12-20T09:14:39;1.38;;;1.15;;
21721;SDS011;11023;48.274;7.794;2023-12-20T09:17:05;2.83;;;1.38;;
21721;SDS011;11023;48.274;7.794;2023-12-20T09:19:35;3.00;;;1.50;;
21721;SDS011;11023;48.274;7.794;2023-12-20T09:22:00;1.70;;;1.15;;
21721;SDS011;11023;48.274;7.794;2023-12-20T09:24:27;1.08;;;0.63;;
21721;SDS011;11023;48.274;7.794;2023-12-20T09:26:52;1.83;;;1.00;;
21721;SDS011;11023;48.274;7.794;2023-12-20T09:29:18;1.00;;;0.95;;
21721;SDS011;11023;48.274;7.794;2023-12-20T09:31:44;0.80;;;0.60;;
21721;SDS011;11023;48.274;7.794;2023-12-20T09:34:11;0.90;;;0.75;;
21721;SDS011;11023;48.274;7.794;2023-12-20T09:36:37;1.17;;;0.70;;
21721;SDS011;11023;48.274;7.794;2023-12-20T09:39:05;2.60;;;0.80;;
21721;SDS011;11023;48.274;7.794;2023-12-20T09:41:31;2.13;;;0.40;;
21721;SDS011;11023;48.274;7.794;2023-12-20T09:44:07;4.95;;;0.57;;
21721;SDS011;11023;48.274;7.794;2023-12-20T09:46:37;1.00;;;0.32;;
21721;SDS011;11023;48.274;7.794;2023-12-20T09:49:07;8.70;;;1.15;;
21721;SDS011;11023;48.274;7.794;2023-12-20T09:51:38;0.70;;;0.45;;
21721;SDS011;11023;48.274;7.794;2023-12-20T09:54:06;3.10;;;0.30;;
21721;SDS011;11023;48.274;7.794;2023-12-20T09:56:31;3.55;;;0.60;;
21721;SDS011;11023;48.274;7.794;2023-12-20T09:59:01;0.43;;;0.40;;
21721;SDS011;11023;48.274;7.794;2023-12-20T10:01:26;2.65;;;0.95;;
21721;SDS011;11023;48.274;7.794;2023-12-20T10:03:54;1.48;;;0.57;;
21721;SDS011;11023;48.274;7.794;2023-12-20T10:06:20;1.75;;;0.70;;
21721;SDS011;11023;48.274;7.794;2023-12-20T10:08:48;2.28;;;0.77;;
21721;SDS011;11023;48.274;7.794;2023-12-20T10:11:13;0.50;;;0.50;;
21721;SDS011;11023;48.274;7.794;2023-12-20T10:13:40;6.03;;;0.63;;
21721;SDS011;11023;48.274;7.794;2023-12-20T10:16:07;1.60;;;0.50;;
21721;SDS011;11023;48.274;7.794;2023-12-20T10:18:33;2.08;;;0.60;;
21721;SDS011;11023;48.274;7.794;2023-12-20T10:21:00;2.47;;;0.40;;
21721;SDS011;11023;48.274;7.794;2023-12-20T10:23:25;1.83;;;0.73;;
21721;SDS011;11023;48.274;7.794;2023-12-20T10:25:57;1.48;;;0.40;;
21721;SDS011;11023;48.274;7.794;2023-12-20T10:28:24;3.63;;;0.38;;
21721;SDS011;11023;48.274;7.794;2023-12-20T10:30:53;3.75;;;0.52;;
21721;SDS011;11023;48.274;7.794;2023-12-20T10:33:28;0.75;;;0.75;;
21721;SDS011;11023;48.274;7.794;2023-12-20T10:36:01;1.35;;;0.55;;
21721;SDS011;11023;48.274;7.794;2023-12-20T10:38:27;2.15;;;0.57;;
21721;SDS011;11023;48.274;7.794;2023-12-20T10:40:56;3.67;;;0.70;;
21721;SDS011;11023;48.274;7.794;2023-12-20T10:43:24;2.95;;;0.35;;
21721;SDS011;11023;48.274;7.794;2023-12-20T10:45:51;2.15;;;0.60;;
21721;SDS011;11023;48.274;7.794;2023-12-20T10:48:19;1.45;;;0.60;;
21721;SDS011;11023;48.274;7.794;2023-12-20T10:50:47;2.72;;;0.70;;
21721;SDS011;11023;48.274;7.794;2023-12-20T10:53:14;1.15;;;0.40;;
21721;SDS011;11023;48.274;7.794;2023-12-20T10:55:41;2.53;;;0.80;;
21721;SDS011;11023;48.274;7.794;2023-12-20T10:58:09;3.90;;;0.80;;
21721;SDS011;11023;48.274;7.794;2023-12-20T11:00:38;3.45;;;0.50;;
21721;SDS011;11023;48.274;7.794;2023-12-20T11:03:11;3.83;;;1.17;;
21721;SDS011;11023;48.274;7.794;2023-12-20T11:10:59;5.00;;;0.77;;
21721;SDS011;11023;48.274;7.794;2023-12-20T11:14:03;3.90;;;0.82;;
21721;SDS011;11023;48.274;7.794;2023-12-20T11:16:36;2.42;;;0.73;;
21721;SDS011;11023;48.274;7.794;2023-12-20T11:19:06;1.95;;;0.55;;
21721;SDS011;11023;48.274;7.794;2023-12-20T11:21:33;3.20;;;0.47;;
21721;SDS011;11023;48.274;7.794;2023-12-20T11:24:03;1.02;;;0.90;;
21721;SDS011;11023;48.274;7.794;2023-12-20T11:26:30;1.25;;;0.57;;
21721;SDS011;11023;48.274;7.794;2023-12-20T11:32:03;2.33;;;0.50;;
21721;SDS011;11023;48.274;7.794;2023-12-20T11:34:48;1.63;;;0.50;;
21721;SDS011;11023;48.274;7.794;2023-12-20T11:37:31;3.70;;;0.40;;
21721;SDS011;11023;48.274;7.794;2023-12-20T11:40:07;3.65;;;0.70;;
21721;SDS011;11023;48.274;7.794;2023-12-20T11:42:39;2.75;;;0.75;;
21721;SDS011;11023;48.274;7.794;2023-12-20T11:45:09;6.50;;;0.98;;
21721;SDS011;11023;48.274;7.794;2023-12-20T11:47:35;1.52;;;0.88;;
21721;SDS011;11023;48.274;7.794;2023-12-20T11:50:01;3.20;;;0.47;;
21721;SDS011;11023;48.274;7.794;2023-12-20T11:52:29;3.50;;;0.82;;
21721;SDS011;11023;48.274;7.794;2023-12-20T11:54:55;3.70;;;0.50;;
21721;SDS011;11023;48.274;7.794;2023-12-20T11:57:22;1.95;;;0.50;;
21721;SDS011;11023;48.274;7.794;2023-12-20T11:59:48;5.05;;;1.00;;
21721;SDS011;11023;48.274;7.794;2023-12-20T12:02:14;1.08;;;0.43;;
21721;SDS011;11023;48.274;7.794;2023-12-20T12:04:43;0.75;;;0.38;;
21721;SDS011;11023;48.274;7.794;2023-12-20T12:07:09;3.05;;;0.82;;
21721;SDS011;11023;48.274;7.794;2023-12-20T12:09:35;2.95;;;0.75;;
21721;SDS011;11023;48.274;7.794;2023-12-20T12:12:01;1.98;;;0.80;;
21721;SDS011;11023;48.274;7.794;2023-12-20T12:14:30;2.20;;;0.50;;
21721;SDS011;11023;48.274;7.794;2023-12-20T12:16:56;4.15;;;0.60;;
21721;SDS011;11023;48.274;7.794;2023-12-20T12:19:22;3.42;;;0.60;;
21721;SDS011;11023;48.274;7.794;2023-12-20T12:21:49;2.47;;;0.55;;
21721;SDS011;11023;48.274;7.794;2023-12-20T12:24:19;5.25;;;1.10;;
21721;SDS011;11023;48.274;7.794;2023-12-20T12:26:51;3.20;;;0.43;;
21721;SDS011;11023;48.274;7.794;2023-12-20T12:29:17;2.20;;;0.47;;
21721;SDS011;11023;48.274;7.794;2023-12-20T12:31:43;0.60;;;0.30;;
21721;SDS011;11023;48.274;7.794;2023-12-20T12:34:09;1.25;;;0.47;;
21721;SDS011;11023;48.274;7.794;2023-12-20T12:36:35;5.93;;;0.50;;
21721;SDS011;11023;48.274;7.794;2023-12-20T12:39:02;3.58;;;0.63;;
21721;SDS011;11023;48.274;7.794;2023-12-20T12:41:29;5.95;;;1.05;;
21721;SDS011;11023;48.274;7.794;2023-12-20T12:43:55;3.35;;;0.50;;
21721;SDS011;11023;48.274;7.794;2023-12-20T12:46:21;2.63;;;0.50;;
21721;SDS011;11023;48.274;7.794;2023-12-20T12:48:47;4.10;;;0.85;;
21721;SDS011;11023;48.274;7.794;2023-12-20T12:51:14;6.10;;;0.95;;
21721;SDS011;11023;48.274;7.794;2023-12-20T12:53:40;4.10;;;0.70;;
21721;SDS011;11023;48.274;7.794;2023-12-20T12:56:06;2.40;;;0.73;;
21721;SDS011;11023;48.274;7.794;2023-12-20T12:58:32;3.25;;;0.60;;
21721;SDS011;11023;48.274;7.794;2023-12-20T13:00:58;3.58;;;0.75;;
21721;SDS011;11023;48.274;7.794;2023-12-20T13:03:24;2.35;;;0.50;;
21721;SDS011;11023;48.274;7.794;2023-12-20T13:05:50;4.90;;;0.73;;
21721;SDS011;11023;48.274;7.794;2023-12-20T13:08:16;6.80;;;1.23;;
21721;SDS011;11023;48.274;7.794;2023-12-20T13:10:42;4.80;;;1.05;;
21721;SDS011;11023;48.274;7.794;2023-12-20T13:13:10;2.20;;;0.38;;
21721;SDS011;11023;48.274;7.794;2023-12-20T13:15:36;4.57;;;0.70;;
21721;SDS011;11023;48.274;7.794;2023-12-20T13:18:08;5.63;;;0.80;;
21721;SDS011;11023;48.274;7.794;2023-12-20T13:20:38;1.27;;;0.40;;
21721;SDS011;11023;48.274;7.794;2023-12-20T13:23:05;2.35;;;0.82;;
21721;SDS011;11023;48.274;7.794;2023-12-20T13:25:31;1.85;;;0.43;;
21721;SDS011;11023;48.274;7.794;2023-12-20T13:27:58;7.47;;;0.75;;
21721;SDS011;11023;48.274;7.794;2023-12-20T13:30:24;4.88;;;0.60;;
21721;SDS011;11023;48.274;7.794;2023-12-20T13:32:56;1.85;;;0.65;;
21721;SDS011;11023;48.274;7.794;2023-12-20T13:35:22;2.30;;;0.47;;
21721;SDS011;11023;48.274;7.794;2023-12-20T13:37:47;3.28;;;0.88;;
21721;SDS011;11023;48.274;7.794;2023-12-20T13:40:13;3.35;;;0.38;;
21721;SDS011;11023;48.274;7.794;2023-12-20T13:42:39;3.28;;;0.73;;
21721;SDS011;11023;48.274;7.794;2023-12-20T13:45:05;3.00;;;0.40;;
21721;SDS011;11023;48.274;7.794;2023-12-20T13:47:31;2.13;;;0.30;;
21721;SDS011;11023;48.274;7.794;2023-12-20T13:49:57;1.33;;;0.47;;
21721;SDS011;11023;48.274;7.794;2023-12-20T13:52:23;2.22;;;0.50;;
21721;SDS011;11023;48.274;7.794;2023-12-20T13:54:49;2.45;;;0.80;;
21721;SDS011;11023;48.274;7.794;2023-12-20T13:57:15;1.85;;;0.55;;
21721;SDS011;11023;48.274;7.794;2023-12-20T13:59:40;3.08;;;1.00;;
21721;SDS011;11023;48.274;7.794;2023-12-20T14:02:06;6.80;;;0.85;;
21721;SDS011;11023;48.274;7.794;2023-12-20T14:04:32;5.32;;;0.98;;
21721;SDS011;11023;48.274;7.794;2023-12-20T14:06:57;1.42;;;0.68;;
21721;SDS011;11023;48.274;7.794;2023-12-20T14:09:23;6.28;;;0.50;;
21721;SDS011;11023;48.274;7.794;2023-12-20T14:11:49;1.27;;;0.65;;
21721;SDS011;11023;48.274;7.794;2023-12-20T14:14:15;2.55;;;0.43;;
21721;SDS011;11023;48.274;7.794;2023-12-20T14:16:40;5.00;;;0.52;;
21721;SDS011;11023;48.274;7.794;2023-12-20T14:19:10;4.47;;;0.63;;
21721;SDS011;11023;48.274;7.794;2023-12-20T14:21:36;0.88;;;0.32;;
21721;SDS011;11023;48.274;7.794;2023-12-20T14:24:01;3.75;;;0.60;;
21721;SDS011;11023;48.274;7.794;2023-12-20T14:26:29;3.83;;;0.52;;
21721;SDS011;11023;48.274;7.794;2023-12-20T14:28:55;2.05;;;0.40;;
21721;SDS011;11023;48.274;7.794;2023-12-20T14:31:20;1.10;;;0.32;;
21721;SDS011;11023;48.274;7.794;2023-12-20T14:33:48;1.98;;;0.40;;
21721;SDS011;11023;48.274;7.794;2023-12-20T14:36:15;1.77;;;0.50;;
21721;SDS011;11023;48.274;7.794;2023-12-20T14:38:42;5.50;;;0.40;;
21721;SDS011;11023;48.274;7.794;2023-12-20T14:41:08;7.50;;;0.65;;
21721;SDS011;11023;48.274;7.794;2023-12-20T14:43:34;2.10;;;0.45;;
21721;SDS011;11023;48.274;7.794;2023-12-20T14:46:00;0.40;;;0.28;;
21721;SDS011;11023;48.274;7.794;2023-12-20T14:48:26;0.80;;;0.30;;
21721;SDS011;11023;48.274;7.794;2023-12-20T14:50:54;2.38;;;0.65;;
21721;SDS011;11023;48.274;7.794;2023-12-20T14:53:20;2.58;;;0.35;;
21721;SDS011;11023;48.274;7.794;2023-12-20T14:55:46;3.15;;;0.65;;